createdAt,value
2022-08-18T00:01:50.522Z,14.27
2022-08-18T00:04:55.348Z,8.57
2022-08-18T00:08:00.931Z,8.70
2022-08-18T00:11:05.895Z,8.17
2022-08-18T00:14:09.710Z,7.30
2022-08-18T00:17:13.014Z,7.63
2022-08-18T00:20:18.580Z,9.93
2022-08-18T00:23:21.625Z,6.80
2022-08-18T00:26:25.774Z,6.47
2022-08-18T00:29:28.642Z,7.47
2022-08-18T00:32:34.109Z,8.87
2022-08-18T00:35:38.838Z,8.13
2022-08-18T00:38:41.832Z,8.67
2022-08-18T00:41:45.914Z,6.73
2022-08-18T00:44:49.629Z,9.40
2022-08-18T00:47:54.006Z,6.67
2022-08-18T00:51:00.229Z,8.30
2022-08-18T00:54:07.193Z,6.50
2022-08-18T00:57:12.381Z,9.87
2022-08-18T01:00:18.846Z,6.57
2022-08-18T01:03:25.088Z,7.67
2022-08-18T01:06:33.403Z,6.97
2022-08-18T01:09:36.869Z,11.10
2022-08-18T01:12:45.353Z,9.70
2022-08-18T01:15:49.336Z,11.00
2022-08-18T01:19:10.135Z,11.53
2022-08-18T01:22:20.231Z,7.63
2022-08-18T01:25:42.030Z,9.40
2022-08-18T01:28:46.735Z,8.73
2022-08-18T01:31:55.748Z,7.10
2022-08-18T01:34:58.994Z,7.47
2022-08-18T01:38:01.731Z,8.40
2022-08-18T01:41:27.239Z,8.83
2022-08-18T01:44:30.631Z,12.00
2022-08-18T01:47:47.312Z,8.10
2022-08-18T01:50:54.457Z,9.90
2022-08-18T01:53:58.364Z,8.13
2022-08-18T01:57:03.461Z,9.63
2022-08-18T02:00:07.577Z,11.77
2022-08-18T02:03:16.237Z,7.70
2022-08-18T02:06:32.348Z,9.63
2022-08-18T02:09:37.908Z,8.97
2022-08-18T02:12:43.069Z,8.73
2022-08-18T02:15:45.894Z,10.13
2022-08-18T02:18:49.076Z,8.53
2022-08-18T02:21:52.722Z,9.30
2022-08-18T02:24:58.709Z,9.20
2022-08-18T02:28:02.754Z,9.63
2022-08-18T02:31:07.174Z,9.93
2022-08-18T02:34:13.980Z,11.43
2022-08-18T02:37:17.105Z,10.03
2022-08-18T02:40:20.132Z,11.40
2022-08-18T02:43:24.523Z,11.47
2022-08-18T02:46:29.699Z,10.97
2022-08-18T02:49:33.160Z,9.30
2022-08-18T02:52:36.511Z,11.97
2022-08-18T02:55:39.949Z,14.17
2022-08-18T02:58:43.941Z,8.53
2022-08-18T03:01:48.772Z,8.40
2022-08-18T03:04:53.001Z,6.30
2022-08-18T03:07:55.655Z,7.10
2022-08-18T03:10:58.382Z,7.90
2022-08-18T03:14:02.449Z,5.50
2022-08-18T03:17:08.306Z,7.43
2022-08-18T03:20:12.465Z,5.97
2022-08-18T03:23:15.136Z,6.27
2022-08-18T03:26:19.337Z,9.90
2022-08-18T03:29:29.521Z,7.47
2022-08-18T03:32:34.531Z,13.30
2022-08-18T03:35:38.225Z,9.50
2022-08-18T03:38:43.204Z,8.17
2022-08-18T03:41:58.970Z,9.23
2022-08-18T03:45:13.371Z,13.13
2022-08-18T03:48:20.595Z,11.00
2022-08-18T03:51:25.746Z,18.33
2022-08-18T03:54:29.135Z,15.27
2022-08-18T03:57:34.442Z,11.53
2022-08-18T04:00:43.258Z,9.83
2022-08-18T04:03:47.945Z,12.83
2022-08-18T04:06:55.471Z,9.13
2022-08-18T04:09:58.779Z,10.90
2022-08-18T04:13:01.418Z,12.50
2022-08-18T04:16:07.109Z,12.13
2022-08-18T04:19:13.437Z,13.90
2022-08-18T04:22:18.516Z,10.03
2022-08-18T04:25:21.811Z,11.13
2022-08-18T04:28:24.957Z,10.87
2022-08-18T04:31:31.451Z,12.47
2022-08-18T04:34:35.256Z,12.03
2022-08-18T04:37:39.783Z,13.13
2022-08-18T04:40:44.657Z,12.90
2022-08-18T04:43:48.076Z,15.40
2022-08-18T04:46:54.725Z,17.60
2022-08-18T04:49:57.392Z,14.53
2022-08-18T04:53:17.520Z,16.70
2022-08-18T04:56:26.465Z,17.30
2022-08-18T04:59:31.894Z,13.10
2022-08-18T05:02:42.240Z,12.30
2022-08-18T05:05:44.948Z,14.80
2022-08-18T05:08:48.162Z,10.50
2022-08-18T05:11:51.490Z,12.30
2022-08-18T05:14:57.819Z,13.83
2022-08-18T05:18:02.144Z,11.03
2022-08-18T05:21:05.120Z,12.83
2022-08-18T05:24:11.856Z,19.80
2022-08-18T05:27:15.152Z,8.43
2022-08-18T05:30:17.871Z,8.83
2022-08-18T05:33:22.030Z,11.53
2022-08-18T05:36:52.512Z,8.63
2022-08-18T05:40:00.183Z,10.93
2022-08-18T05:43:04.968Z,10.47
2022-08-18T05:46:09.085Z,7.90
2022-08-18T05:49:15.460Z,9.50
2022-08-18T05:52:22.915Z,9.90
2022-08-18T05:55:48.326Z,11.33
2022-08-18T05:58:55.376Z,11.30
2022-08-18T06:02:03.916Z,12.47
2022-08-18T06:05:12.765Z,13.80
2022-08-18T06:08:18.341Z,10.93
2022-08-18T06:11:22.335Z,12.47
2022-08-18T06:14:26.280Z,11.23
2022-08-18T06:17:52.351Z,13.00
2022-08-18T06:21:26.340Z,10.93
2022-08-18T06:24:38.161Z,10.90
2022-08-18T06:27:55.505Z,11.43
2022-08-18T06:31:06.324Z,13.13
2022-08-18T06:34:19.568Z,14.30
2022-08-18T06:37:31.862Z,13.97
2022-08-18T06:40:34.599Z,16.93
2022-08-18T06:43:39.968Z,12.53
2022-08-18T06:46:47.086Z,13.97
2022-08-18T06:49:55.213Z,13.73
2022-08-18T06:53:02.030Z,14.03
2022-08-18T06:56:26.450Z,14.30
2022-08-18T06:59:32.228Z,18.70
2022-08-18T07:02:52.307Z,14.23
2022-08-18T07:06:02.176Z,15.30
2022-08-18T07:09:25.438Z,15.50
2022-08-18T07:12:32.895Z,17.27
2022-08-18T07:15:36.395Z,15.93
2022-08-18T07:18:39.073Z,12.93
2022-08-18T07:21:42.210Z,13.40
2022-08-18T07:24:48.805Z,14.27
2022-08-18T07:27:55.993Z,15.23
2022-08-18T07:31:17.244Z,14.50
2022-08-18T07:34:26.522Z,16.87
2022-08-18T07:37:33.840Z,27.43
2022-08-18T07:40:44.235Z,14.80
2022-08-18T07:44:02.192Z,16.37
2022-08-18T07:47:11.074Z,14.93
2022-08-18T07:50:26.856Z,16.30
2022-08-18T07:53:54.778Z,14.87
2022-08-18T07:57:07.305Z,15.67
2022-08-18T08:00:26.734Z,14.17
2022-08-18T08:03:52.185Z,15.43
2022-08-18T08:07:23.352Z,15.33
2022-08-18T08:10:37.450Z,13.17
2022-08-18T08:13:55.846Z,14.40
2022-08-18T08:17:07.353Z,19.50
2022-08-18T08:20:22.167Z,15.17
2022-08-18T08:23:30.441Z,13.33
2022-08-18T08:26:45.533Z,14.03
2022-08-18T08:30:01.977Z,14.43
2022-08-18T08:33:11.326Z,14.10
2022-08-18T08:36:19.936Z,14.77
2022-08-18T08:39:26.869Z,16.17
2022-08-18T08:42:41.129Z,15.17
2022-08-18T08:45:50.514Z,15.27
2022-08-18T08:49:01.145Z,15.57
2022-08-18T08:52:10.544Z,12.27
2022-08-18T08:55:18.351Z,12.77
2022-08-18T08:58:26.467Z,14.60
2022-08-18T09:01:35.526Z,17.00
2022-08-18T09:05:07.520Z,15.33
2022-08-18T09:08:26.692Z,14.53
2022-08-18T09:11:58.736Z,15.33
2022-08-18T09:15:23.495Z,15.30
2022-08-18T09:18:43.560Z,16.83
2022-08-18T09:21:53.095Z,14.03
2022-08-18T09:24:56.548Z,18.50
2022-08-18T09:28:11.808Z,15.43
2022-08-18T09:31:19.958Z,12.73
2022-08-18T09:34:51.471Z,15.07
2022-08-18T09:38:20.363Z,17.67
2022-08-18T09:41:34.104Z,14.27
2022-08-18T09:45:02.125Z,15.47
2022-08-18T09:48:25.507Z,16.37
2022-08-18T09:51:39.871Z,16.13
2022-08-18T09:54:52.559Z,17.33
2022-08-18T09:58:15.360Z,21.30
2022-08-18T10:01:33.000Z,20.73
2022-08-18T10:04:48.679Z,21.03
2022-08-18T10:07:56.127Z,19.07
2022-08-18T10:11:14.124Z,19.07
2022-08-18T10:14:35.437Z,15.73
2022-08-18T10:17:51.827Z,17.47
2022-08-18T10:21:04.847Z,20.20
2022-08-18T10:24:36.161Z,18.40
2022-08-18T10:27:53.443Z,17.77
2022-08-18T10:34:51.667Z,21.73
2022-08-18T10:37:55.190Z,20.03
2022-08-18T10:41:10.181Z,21.37
2022-08-18T10:44:29.286Z,21.40
2022-08-18T10:47:33.494Z,18.43
2022-08-18T10:50:42.700Z,20.10
2022-08-18T10:53:51.897Z,19.03
2022-08-18T10:57:06.115Z,21.53
2022-08-18T11:00:12.388Z,20.37
2022-08-18T11:03:51.635Z,18.80
2022-08-18T11:06:58.264Z,21.57
2022-08-18T11:10:27.816Z,17.33
2022-08-18T11:13:46.317Z,18.53
2022-08-18T11:17:00.368Z,21.07
2022-08-18T11:20:09.733Z,19.87
2022-08-18T11:23:14.897Z,14.93
2022-08-18T11:26:19.483Z,15.93
2022-08-18T11:29:32.264Z,17.60
2022-08-18T11:32:39.429Z,19.27
2022-08-18T11:35:48.880Z,15.83
2022-08-18T11:38:56.143Z,17.97
2022-08-18T11:42:00.922Z,19.17
2022-08-18T11:45:11.843Z,16.07
2022-08-18T11:48:20.844Z,21.63
2022-08-18T11:51:32.587Z,16.17
2022-08-18T11:54:50.815Z,18.37
2022-08-18T11:58:00.292Z,18.77
2022-08-18T12:01:04.567Z,19.10
2022-08-18T12:04:23.021Z,18.57
2022-08-18T12:07:31.940Z,20.43
2022-08-18T12:10:36.485Z,13.60
2022-08-18T12:13:39.341Z,16.70
2022-08-18T12:16:46.442Z,15.27
2022-08-18T12:19:49.491Z,18.20
2022-08-18T12:22:57.694Z,19.07
2022-08-18T12:26:00.347Z,20.67
2022-08-18T12:29:03.077Z,24.37
2022-08-18T12:32:08.560Z,23.13
2022-08-18T12:35:22.357Z,20.40
2022-08-18T12:38:26.176Z,20.87
2022-08-18T12:41:32.001Z,23.73
2022-08-18T12:44:35.110Z,24.73
2022-08-18T12:47:42.329Z,22.20
2022-08-18T12:50:54.234Z,13.47
2022-08-18T12:53:59.487Z,14.77
2022-08-18T12:57:04.464Z,12.60
2022-08-18T13:03:37.169Z,9.40
2022-08-18T13:06:54.095Z,11.57
2022-08-18T13:10:03.221Z,11.63
2022-08-18T13:13:05.884Z,14.17
2022-08-18T13:16:09.481Z,20.53
2022-08-18T13:19:20.607Z,14.07
2022-08-18T13:22:32.843Z,13.57
2022-08-18T13:25:39.459Z,15.73
2022-08-18T13:28:57.117Z,17.03
2022-08-18T13:32:00.966Z,11.93
2022-08-18T13:35:13.311Z,18.87
2022-08-18T13:38:22.135Z,15.33
2022-08-18T13:41:33.276Z,18.03
2022-08-18T13:44:38.041Z,13.70
2022-08-18T13:47:42.229Z,13.20
2022-08-18T13:50:52.349Z,18.40
2022-08-18T13:54:26.536Z,13.67
2022-08-18T13:57:19.980Z,15.43
2022-08-18T14:00:30.547Z,11.70
2022-08-18T14:03:46.902Z,15.13
2022-08-18T14:06:57.383Z,11.97
2022-08-18T14:10:03.703Z,10.53
2022-08-18T14:13:20.507Z,11.73
2022-08-18T14:16:28.126Z,12.83
2022-08-18T14:19:48.352Z,12.47
2022-08-18T14:23:11.859Z,10.97
2022-08-18T14:26:32.591Z,10.63
2022-08-18T14:29:46.537Z,7.63
2022-08-18T14:32:50.581Z,8.80
2022-08-18T14:36:05.827Z,10.03
2022-08-18T14:39:11.179Z,11.50
2022-08-18T14:42:15.820Z,9.13
2022-08-18T14:45:26.946Z,8.73
2022-08-18T14:48:36.952Z,4.83
2022-08-18T14:51:42.561Z,10.00
2022-08-18T14:54:51.254Z,17.33
2022-08-18T14:57:54.317Z,11.63
2022-08-18T15:00:59.196Z,12.37
2022-08-18T15:04:19.266Z,14.10
2022-08-18T15:07:23.851Z,11.97
2022-08-18T15:10:28.375Z,11.97
2022-08-18T15:13:32.250Z,5.90
2022-08-18T15:16:39.774Z,9.27
2022-08-18T15:19:59.011Z,8.37
2022-08-18T15:23:28.185Z,10.03
2022-08-18T15:26:32.457Z,10.13
2022-08-18T15:29:41.516Z,7.10
2022-08-18T15:32:49.688Z,10.83
2022-08-18T15:35:53.500Z,12.50
2022-08-18T15:38:56.757Z,9.10
2022-08-18T15:42:00.762Z,9.30
2022-08-18T15:45:11.986Z,7.67
2022-08-18T15:48:17.609Z,8.83
2022-08-18T15:51:20.367Z,5.70
2022-08-18T15:54:23.331Z,5.33
2022-08-18T15:57:38.935Z,8.43
2022-08-18T16:00:45.849Z,7.43
2022-08-18T16:03:49.980Z,10.33
2022-08-18T16:06:56.297Z,7.37
2022-08-18T16:09:59.100Z,8.57
2022-08-18T16:13:04.588Z,7.00
2022-08-18T16:16:13.172Z,7.57
2022-08-18T16:19:15.849Z,9.47
2022-08-18T16:22:21.234Z,7.93
2022-08-18T16:25:25.263Z,9.50
2022-08-18T16:28:34.810Z,8.37
2022-08-18T16:31:38.154Z,10.13
2022-08-18T16:34:41.867Z,7.70
2022-08-18T16:37:44.558Z,8.20
2022-08-18T16:40:47.510Z,10.37
2022-08-18T16:43:51.544Z,8.17
2022-08-18T16:46:54.354Z,8.40
2022-08-18T16:49:58.691Z,8.80
2022-08-18T16:53:01.901Z,11.67
2022-08-18T16:56:05.205Z,12.00
2022-08-18T16:59:32.654Z,10.33
2022-08-18T17:02:53.255Z,8.30
2022-08-18T17:06:04.863Z,12.13
2022-08-18T17:09:10.284Z,9.07
2022-08-18T17:12:13.131Z,7.87
2022-08-18T17:15:17.193Z,9.40
2022-08-18T17:18:20.902Z,11.70
2022-08-18T17:21:26.892Z,10.27
2022-08-18T17:24:32.227Z,11.17
2022-08-18T17:27:37.347Z,10.10
2022-08-18T17:30:47.450Z,8.60
2022-08-18T17:33:50.177Z,10.70
2022-08-18T17:36:54.957Z,10.60
2022-08-18T17:40:03.524Z,9.40
2022-08-18T17:43:18.119Z,9.87
2022-08-18T17:46:27.454Z,10.70
2022-08-18T17:50:28.031Z,9.27
2022-08-18T17:53:21.940Z,14.83
2022-08-18T17:56:35.387Z,11.03
2022-08-18T17:59:51.865Z,13.03
2022-08-18T18:02:56.427Z,13.20
2022-08-18T18:06:03.906Z,11.20
2022-08-18T18:09:10.785Z,13.67
2022-08-18T18:12:23.554Z,13.87
2022-08-18T18:15:33.965Z,14.67
2022-08-18T18:18:41.836Z,17.23
2022-08-18T18:21:53.606Z,14.23
2022-08-18T18:25:07.642Z,14.40
2022-08-18T18:28:27.776Z,13.23
2022-08-18T18:31:32.473Z,13.50
2022-08-18T18:34:39.680Z,14.60
2022-08-18T18:37:49.285Z,14.70
2022-08-18T18:40:58.856Z,15.33
2022-08-18T18:44:09.411Z,15.37
2022-08-18T18:47:24.652Z,16.00
2022-08-18T18:50:34.791Z,16.37
2022-08-18T18:53:51.949Z,12.97
2022-08-18T18:56:57.413Z,17.00
2022-08-18T19:00:14.320Z,14.93
2022-08-18T19:03:24.558Z,16.47
2022-08-18T19:06:33.592Z,18.63
2022-08-18T19:09:48.516Z,14.63
2022-08-18T19:12:58.299Z,14.50
2022-08-18T19:16:11.867Z,14.10
2022-08-18T19:19:39.316Z,13.50
